sensor_id;sensor_type;location;lat;lon;timestamp;temperature;humidity
27164;DHT22;14685;50.618;7.024;2022-11-15T00:00:53;13.80;99.90
27164;DHT22;14685;50.618;7.024;2022-11-15T00:03:26;13.80;99.90
27164;DHT22;14685;50.618;7.024;2022-11-15T00:05:54;13.90;99.90
27164;DHT22;14685;50.618;7.024;2022-11-15T00:08:21;13.90;99.90
27164;DHT22;14685;50.618;7.024;2022-11-15T00:10:58;13.90;99.90
27164;DHT22;14685;50.618;7.024;2022-11-15T00:13:26;13.90;99.90
27164;DHT22;14685;50.618;7.024;2022-11-15T00:15:57;13.90;99.90
27164;DHT22;14685;50.618;7.024;2022-11-15T00:18:24;13.90;99.90
27164;DHT22;14685;50.618;7.024;2022-11-15T00:20:51;13.90;99.90
27164;DHT22;14685;50.618;7.024;2022-11-15T00:23:18;13.90;99.90
27164;DHT22;14685;50.618;7.024;2022-11-15T00:25:45;14.00;99.90
27164;DHT22;14685;50.618;7.024;2022-11-15T00:28:12;14.00;99.90
27164;DHT22;14685;50.618;7.024;2022-11-15T00:30:38;14.00;99.90
27164;DHT22;14685;50.618;7.024;2022-11-15T00:33:06;14.00;99.90
27164;DHT22;14685;50.618;7.024;2022-11-15T00:35:34;14.10;99.90
27164;DHT22;14685;50.618;7.024;2022-11-15T00:38:02;14.10;99.90
27164;DHT22;14685;50.618;7.024;2022-11-15T00:40:29;14.10;99.90
27164;DHT22;14685;50.618;7.024;2022-11-15T00:42:56;14.10;99.90
27164;DHT22;14685;50.618;7.024;2022-11-15T00:45:23;14.10;99.90
27164;DHT22;14685;50.618;7.024;2022-11-15T00:47:50;14.10;99.90
27164;DHT22;14685;50.618;7.024;2022-11-15T00:50:17;14.10;99.90
27164;DHT22;14685;50.618;7.024;2022-11-15T00:52:45;14.20;99.90
27164;DHT22;14685;50.618;7.024;2022-11-15T00:55:16;14.20;99.90
27164;DHT22;14685;50.618;7.024;2022-11-15T00:57:43;14.20;99.90
27164;DHT22;14685;50.618;7.024;2022-11-15T01:00:11;14.20;99.90
27164;DHT22;14685;50.618;7.024;2022-11-15T01:02:38;14.20;99.90
27164;DHT22;14685;50.618;7.024;2022-11-15T01:05:05;14.20;99.90
27164;DHT22;14685;50.618;7.024;2022-11-15T01:07:34;14.20;99.90
27164;DHT22;14685;50.618;7.024;2022-11-15T01:10:00;14.20;99.90
27164;DHT22;14685;50.618;7.024;2022-11-15T01:12:27;14.20;99.90
27164;DHT22;14685;50.618;7.024;2022-11-15T01:14:55;14.10;99.90
27164;DHT22;14685;50.618;7.024;2022-11-15T01:17:22;14.10;99.90
27164;DHT22;14685;50.618;7.024;2022-11-15T01:19:49;14.20;99.90
27164;DHT22;14685;50.618;7.024;2022-11-15T01:22:17;14.10;99.90
27164;DHT22;14685;50.618;7.024;2022-11-15T01:24:44;14.20;99.90
27164;DHT22;14685;50.618;7.024;2022-11-15T01:27:11;14.10;99.90
27164;DHT22;14685;50.618;7.024;2022-11-15T01:29:39;14.20;99.90
27164;DHT22;14685;50.618;7.024;2022-11-15T01:32:06;14.20;99.90
27164;DHT22;14685;50.618;7.024;2022-11-15T01:34:33;14.20;99.90
27164;DHT22;14685;50.618;7.024;2022-11-15T01:37:00;14.20;99.90
27164;DHT22;14685;50.618;7.024;2022-11-15T01:39:27;14.20;99.90
27164;DHT22;14685;50.618;7.024;2022-11-15T01:41:54;14.20;99.90
27164;DHT22;14685;50.618;7.024;2022-11-15T01:47:03;14.30;99.90
27164;DHT22;14685;50.618;7.024;2022-11-15T01:49:33;14.20;99.90
27164;DHT22;14685;50.618;7.024;2022-11-15T01:52:04;14.20;99.90
27164;DHT22;14685;50.618;7.024;2022-11-15T01:54:31;14.20;99.90
27164;DHT22;14685;50.618;7.024;2022-11-15T01:57:08;14.20;99.90
27164;DHT22;14685;50.618;7.024;2022-11-15T01:59:37;14.30;99.90
27164;DHT22;14685;50.618;7.024;2022-11-15T02:02:04;14.20;99.90
27164;DHT22;14685;50.618;7.024;2022-11-15T02:04:40;14.30;99.90
27164;DHT22;14685;50.618;7.024;2022-11-15T02:07:09;14.30;99.90
27164;DHT22;14685;50.618;7.024;2022-11-15T02:09:37;14.30;99.90
27164;DHT22;14685;50.618;7.024;2022-11-15T02:12:06;14.30;99.90
27164;DHT22;14685;50.618;7.024;2022-11-15T02:14:34;14.30;99.90
27164;DHT22;14685;50.618;7.024;2022-11-15T02:28:25;14.30;99.90
27164;DHT22;14685;50.618;7.024;2022-11-15T02:34:06;14.40;99.90
27164;DHT22;14685;50.618;7.024;2022-11-15T02:36:42;14.40;99.90
27164;DHT22;14685;50.618;7.024;2022-11-15T02:42:06;14.50;99.90
27164;DHT22;14685;50.618;7.024;2022-11-15T02:44:56;14.50;99.90
27164;DHT22;14685;50.618;7.024;2022-11-15T02:47:26;14.50;99.90
27164;DHT22;14685;50.618;7.024;2022-11-15T02:49:58;14.50;99.90
27164;DHT22;14685;50.618;7.024;2022-11-15T02:52:25;14.50;99.90
27164;DHT22;14685;50.618;7.024;2022-11-15T02:54:56;14.60;99.90
27164;DHT22;14685;50.618;7.024;2022-11-15T02:57:55;14.50;99.90
27164;DHT22;14685;50.618;7.024;2022-11-15T03:00:28;14.50;99.90
27164;DHT22;14685;50.618;7.024;2022-11-15T03:03:30;14.60;99.90
27164;DHT22;14685;50.618;7.024;2022-11-15T03:11:48;14.50;99.90
27164;DHT22;14685;50.618;7.024;2022-11-15T03:14:23;14.50;99.90
27164;DHT22;14685;50.618;7.024;2022-11-15T03:17:08;14.50;99.90
27164;DHT22;14685;50.618;7.024;2022-11-15T03:19:46;14.50;99.90
27164;DHT22;14685;50.618;7.024;2022-11-15T03:22:17;14.50;99.90
27164;DHT22;14685;50.618;7.024;2022-11-15T03:24:47;14.50;99.90
27164;DHT22;14685;50.618;7.024;2022-11-15T03:27:21;14.50;99.90
27164;DHT22;14685;50.618;7.024;2022-11-15T03:29:54;14.50;99.90
27164;DHT22;14685;50.618;7.024;2022-11-15T03:32:29;14.50;99.90
27164;DHT22;14685;50.618;7.024;2022-11-15T03:35:24;14.40;99.90
27164;DHT22;14685;50.618;7.024;2022-11-15T03:38:15;14.40;99.90
27164;DHT22;14685;50.618;7.024;2022-11-15T03:41:05;14.40;99.90
27164;DHT22;14685;50.618;7.024;2022-11-15T03:43:55;14.40;99.90
27164;DHT22;14685;50.618;7.024;2022-11-15T03:46:32;14.40;99.90
27164;DHT22;14685;50.618;7.024;2022-11-15T03:49:22;14.40;99.90
27164;DHT22;14685;50.618;7.024;2022-11-15T03:51:51;14.40;99.90
27164;DHT22;14685;50.618;7.024;2022-11-15T03:54:18;14.30;99.90
27164;DHT22;14685;50.618;7.024;2022-11-15T03:56:44;14.30;99.90
27164;DHT22;14685;50.618;7.024;2022-11-15T03:59:12;14.30;99.90
27164;DHT22;14685;50.618;7.024;2022-11-15T04:01:39;14.30;99.90
27164;DHT22;14685;50.618;7.024;2022-11-15T04:04:06;14.30;99.90
27164;DHT22;14685;50.618;7.024;2022-11-15T04:06:33;14.40;99.90
27164;DHT22;14685;50.618;7.024;2022-11-15T04:09:00;14.30;99.90
27164;DHT22;14685;50.618;7.024;2022-11-15T04:11:26;14.30;99.90
27164;DHT22;14685;50.618;7.024;2022-11-15T04:13:54;14.40;99.90
27164;DHT22;14685;50.618;7.024;2022-11-15T04:16:21;14.40;99.90
27164;DHT22;14685;50.618;7.024;2022-11-15T04:18:48;14.40;99.90
27164;DHT22;14685;50.618;7.024;2022-11-15T04:21:37;14.40;99.90
27164;DHT22;14685;50.618;7.024;2022-11-15T04:24:22;14.40;99.90
27164;DHT22;14685;50.618;7.024;2022-11-15T04:26:49;14.40;99.90
27164;DHT22;14685;50.618;7.024;2022-11-15T04:29:16;14.50;99.90
27164;DHT22;14685;50.618;7.024;2022-11-15T04:32:06;14.50;99.90
27164;DHT22;14685;50.618;7.024;2022-11-15T04:34:33;14.50;99.90
27164;DHT22;14685;50.618;7.024;2022-11-15T04:36:59;14.50;99.90
27164;DHT22;14685;50.618;7.024;2022-11-15T04:39:41;14.50;99.90
27164;DHT22;14685;50.618;7.024;2022-11-15T04:42:09;14.50;99.90
27164;DHT22;14685;50.618;7.024;2022-11-15T04:44:36;14.40;99.90
27164;DHT22;14685;50.618;7.024;2022-11-15T04:47:03;14.40;99.90
27164;DHT22;14685;50.618;7.024;2022-11-15T04:49:31;14.50;99.90
27164;DHT22;14685;50.618;7.024;2022-11-15T04:51:58;14.50;99.90
27164;DHT22;14685;50.618;7.024;2022-11-15T04:54:24;14.50;99.90
27164;DHT22;14685;50.618;7.024;2022-11-15T04:56:51;14.50;99.90
27164;DHT22;14685;50.618;7.024;2022-11-15T04:59:19;14.50;99.90
27164;DHT22;14685;50.618;7.024;2022-11-15T05:01:46;14.50;99.90
27164;DHT22;14685;50.618;7.024;2022-11-15T05:04:13;14.50;99.90
27164;DHT22;14685;50.618;7.024;2022-11-15T05:06:50;14.50;99.90
27164;DHT22;14685;50.618;7.024;2022-11-15T05:09:19;14.50;99.90
27164;DHT22;14685;50.618;7.024;2022-11-15T05:11:46;14.50;99.90
27164;DHT22;14685;50.618;7.024;2022-11-15T05:14:14;14.50;99.90
27164;DHT22;14685;50.618;7.024;2022-11-15T05:16:42;14.40;99.90
27164;DHT22;14685;50.618;7.024;2022-11-15T05:19:09;14.40;99.90
27164;DHT22;14685;50.618;7.024;2022-11-15T05:21:36;14.40;99.90
27164;DHT22;14685;50.618;7.024;2022-11-15T05:24:03;14.40;99.90
27164;DHT22;14685;50.618;7.024;2022-11-15T05:26:30;14.40;99.90
27164;DHT22;14685;50.618;7.024;2022-11-15T05:28:58;14.40;99.90
27164;DHT22;14685;50.618;7.024;2022-11-15T05:31:26;14.40;99.90
27164;DHT22;14685;50.618;7.024;2022-11-15T05:33:55;14.40;99.90
27164;DHT22;14685;50.618;7.024;2022-11-15T05:39:05;14.40;99.90
27164;DHT22;14685;50.618;7.024;2022-11-15T05:41:38;14.40;99.90
27164;DHT22;14685;50.618;7.024;2022-11-15T05:44:07;14.40;99.90
27164;DHT22;14685;50.618;7.024;2022-11-15T05:46:37;14.40;99.90
27164;DHT22;14685;50.618;7.024;2022-11-15T05:49:07;14.40;99.90
27164;DHT22;14685;50.618;7.024;2022-11-15T05:51:35;14.40;99.90
27164;DHT22;14685;50.618;7.024;2022-11-15T05:54:02;14.40;99.90
27164;DHT22;14685;50.618;7.024;2022-11-15T05:56:30;14.50;99.90
27164;DHT22;14685;50.618;7.024;2022-11-15T05:58:57;14.50;99.90
27164;DHT22;14685;50.618;7.024;2022-11-15T06:01:26;14.50;99.90
27164;DHT22;14685;50.618;7.024;2022-11-15T06:03:53;14.50;99.90
27164;DHT22;14685;50.618;7.024;2022-11-15T06:06:20;14.50;99.90
27164;DHT22;14685;50.618;7.024;2022-11-15T06:08:47;14.40;99.90
27164;DHT22;14685;50.618;7.024;2022-11-15T06:14:46;14.40;99.90
27164;DHT22;14685;50.618;7.024;2022-11-15T06:17:17;14.40;99.90
27164;DHT22;14685;50.618;7.024;2022-11-15T06:19:43;14.40;99.90
27164;DHT22;14685;50.618;7.024;2022-11-15T06:22:10;14.30;99.90
27164;DHT22;14685;50.618;7.024;2022-11-15T06:24:37;14.30;99.90
27164;DHT22;14685;50.618;7.024;2022-11-15T06:27:04;14.30;99.90
27164;DHT22;14685;50.618;7.024;2022-11-15T06:29:32;14.20;99.90
27164;DHT22;14685;50.618;7.024;2022-11-15T06:32:00;14.20;99.90
27164;DHT22;14685;50.618;7.024;2022-11-15T06:34:27;14.20;99.90
27164;DHT22;14685;50.618;7.024;2022-11-15T06:36:54;14.20;99.90
27164;DHT22;14685;50.618;7.024;2022-11-15T06:39:21;14.20;99.90
27164;DHT22;14685;50.618;7.024;2022-11-15T06:41:47;14.20;99.90
27164;DHT22;14685;50.618;7.024;2022-11-15T06:44:14;14.20;99.90
27164;DHT22;14685;50.618;7.024;2022-11-15T06:46:41;14.20;99.90
27164;DHT22;14685;50.618;7.024;2022-11-15T06:49:08;14.20;99.90
27164;DHT22;14685;50.618;7.024;2022-11-15T06:51:36;14.20;99.90
27164;DHT22;14685;50.618;7.024;2022-11-15T06:54:04;14.10;99.90
27164;DHT22;14685;50.618;7.024;2022-11-15T06:56:33;14.10;99.90
27164;DHT22;14685;50.618;7.024;2022-11-15T06:59:01;14.10;99.90
27164;DHT22;14685;50.618;7.024;2022-11-15T07:01:28;14.00;99.90
27164;DHT22;14685;50.618;7.024;2022-11-15T07:03:55;13.90;99.90
27164;DHT22;14685;50.618;7.024;2022-11-15T07:06:23;14.00;99.90
27164;DHT22;14685;50.618;7.024;2022-11-15T07:08:50;14.00;99.90
27164;DHT22;14685;50.618;7.024;2022-11-15T07:11:19;13.90;99.90
27164;DHT22;14685;50.618;7.024;2022-11-15T07:13:46;13.90;99.90
27164;DHT22;14685;50.618;7.024;2022-11-15T07:16:13;13.90;99.90
27164;DHT22;14685;50.618;7.024;2022-11-15T07:18:40;13.90;99.90
27164;DHT22;14685;50.618;7.024;2022-11-15T07:21:09;13.80;99.90
27164;DHT22;14685;50.618;7.024;2022-11-15T07:23:38;13.80;99.90
27164;DHT22;14685;50.618;7.024;2022-11-15T07:26:06;13.80;99.90
27164;DHT22;14685;50.618;7.024;2022-11-15T07:28:33;13.80;99.90
27164;DHT22;14685;50.618;7.024;2022-11-15T07:31:04;13.80;99.90
27164;DHT22;14685;50.618;7.024;2022-11-15T07:33:32;13.70;99.90
27164;DHT22;14685;50.618;7.024;2022-11-15T07:36:00;13.60;99.90
27164;DHT22;14685;50.618;7.024;2022-11-15T07:38:31;13.60;99.90
27164;DHT22;14685;50.618;7.024;2022-11-15T07:41:04;13.60;99.90
27164;DHT22;14685;50.618;7.024;2022-11-15T07:43:32;13.60;99.90
27164;DHT22;14685;50.618;7.024;2022-11-15T07:46:09;13.60;99.90
27164;DHT22;14685;50.618;7.024;2022-11-15T07:48:38;13.60;99.90
27164;DHT22;14685;50.618;7.024;2022-11-15T07:51:12;13.70;99.90
27164;DHT22;14685;50.618;7.024;2022-11-15T07:53:41;13.70;99.90
27164;DHT22;14685;50.618;7.024;2022-11-15T07:56:08;13.80;99.90
27164;DHT22;14685;50.618;7.024;2022-11-15T07:58:34;13.80;99.90
27164;DHT22;14685;50.618;7.024;2022-11-15T08:01:06;13.90;99.90
27164;DHT22;14685;50.618;7.024;2022-11-15T08:03:33;13.90;99.90
27164;DHT22;14685;50.618;7.024;2022-11-15T08:06:03;13.90;99.90
27164;DHT22;14685;50.618;7.024;2022-11-15T08:08:30;14.00;99.90
27164;DHT22;14685;50.618;7.024;2022-11-15T08:10:58;14.00;99.90
27164;DHT22;14685;50.618;7.024;2022-11-15T08:13:25;14.00;99.90
27164;DHT22;14685;50.618;7.024;2022-11-15T08:15:58;13.90;99.90
27164;DHT22;14685;50.618;7.024;2022-11-15T08:18:25;14.00;99.90
27164;DHT22;14685;50.618;7.024;2022-11-15T08:20:52;14.00;99.90
27164;DHT22;14685;50.618;7.024;2022-11-15T08:23:19;13.90;99.90
27164;DHT22;14685;50.618;7.024;2022-11-15T08:25:47;13.90;99.90
27164;DHT22;14685;50.618;7.024;2022-11-15T08:28:16;13.90;99.90
27164;DHT22;14685;50.618;7.024;2022-11-15T08:30:44;13.90;99.90
27164;DHT22;14685;50.618;7.024;2022-11-15T08:33:13;13.90;99.90
27164;DHT22;14685;50.618;7.024;2022-11-15T08:35:42;13.90;99.90
27164;DHT22;14685;50.618;7.024;2022-11-15T08:38:10;13.90;99.90
27164;DHT22;14685;50.618;7.024;2022-11-15T08:40:37;13.90;99.90
27164;DHT22;14685;50.618;7.024;2022-11-15T08:43:05;13.90;99.90
27164;DHT22;14685;50.618;7.024;2022-11-15T08:45:34;14.00;99.90
27164;DHT22;14685;50.618;7.024;2022-11-15T08:48:02;14.00;99.90
27164;DHT22;14685;50.618;7.024;2022-11-15T08:50:30;14.10;99.90
27164;DHT22;14685;50.618;7.024;2022-11-15T08:52:57;14.20;99.90
27164;DHT22;14685;50.618;7.024;2022-11-15T08:55:23;14.20;99.90
27164;DHT22;14685;50.618;7.024;2022-11-15T08:57:50;14.40;99.90
27164;DHT22;14685;50.618;7.024;2022-11-15T09:00:21;14.40;99.90
27164;DHT22;14685;50.618;7.024;2022-11-15T09:02:48;14.50;99.90
27164;DHT22;14685;50.618;7.024;2022-11-15T09:05:15;14.50;99.90
27164;DHT22;14685;50.618;7.024;2022-11-15T09:07:42;14.50;99.90
27164;DHT22;14685;50.618;7.024;2022-11-15T09:10:09;14.50;99.90
27164;DHT22;14685;50.618;7.024;2022-11-15T09:12:37;14.50;99.90
27164;DHT22;14685;50.618;7.024;2022-11-15T09:15:05;14.60;99.90
27164;DHT22;14685;50.618;7.024;2022-11-15T09:17:32;14.70;99.90
27164;DHT22;14685;50.618;7.024;2022-11-15T09:20:00;14.60;99.90
27164;DHT22;14685;50.618;7.024;2022-11-15T09:22:27;14.70;99.90
27164;DHT22;14685;50.618;7.024;2022-11-15T09:24:55;14.60;99.90
27164;DHT22;14685;50.618;7.024;2022-11-15T09:27:22;14.70;99.90
27164;DHT22;14685;50.618;7.024;2022-11-15T09:29:49;14.80;99.90
27164;DHT22;14685;50.618;7.024;2022-11-15T09:32:16;14.70;99.90
27164;DHT22;14685;50.618;7.024;2022-11-15T09:34:43;14.70;99.90
27164;DHT22;14685;50.618;7.024;2022-11-15T09:37:10;14.70;99.90
27164;DHT22;14685;50.618;7.024;2022-11-15T09:39:37;14.60;99.90
27164;DHT22;14685;50.618;7.024;2022-11-15T09:50:10;14.60;99.90
27164;DHT22;14685;50.618;7.024;2022-11-15T09:52:41;14.60;99.90
27164;DHT22;14685;50.618;7.024;2022-11-15T09:55:11;14.70;99.90
27164;DHT22;14685;50.618;7.024;2022-11-15T09:57:55;14.70;99.90
27164;DHT22;14685;50.618;7.024;2022-11-15T10:00:38;14.80;99.90
27164;DHT22;14685;50.618;7.024;2022-11-15T10:03:29;14.80;99.90
27164;DHT22;14685;50.618;7.024;2022-11-15T10:06:01;14.80;99.90
27164;DHT22;14685;50.618;7.024;2022-11-15T10:08:54;14.80;99.90
27164;DHT22;14685;50.618;7.024;2022-11-15T10:11:31;14.80;99.90
27164;DHT22;14685;50.618;7.024;2022-11-15T10:14:25;14.80;99.90
27164;DHT22;14685;50.618;7.024;2022-11-15T10:17:00;14.80;99.90
27164;DHT22;14685;50.618;7.024;2022-11-15T10:25:18;14.80;99.90
27164;DHT22;14685;50.618;7.024;2022-11-15T10:30:22;14.80;99.90
27164;DHT22;14685;50.618;7.024;2022-11-15T10:32:49;14.90;99.90
27164;DHT22;14685;50.618;7.024;2022-11-15T10:35:23;14.90;99.90
27164;DHT22;14685;50.618;7.024;2022-11-15T10:37:50;14.90;99.90
27164;DHT22;14685;50.618;7.024;2022-11-15T10:40:20;15.00;99.90
27164;DHT22;14685;50.618;7.024;2022-11-15T10:43:04;15.00;99.90
27164;DHT22;14685;50.618;7.024;2022-11-15T10:45:33;14.90;99.90
27164;DHT22;14685;50.618;7.024;2022-11-15T10:50:40;14.80;99.90
27164;DHT22;14685;50.618;7.024;2022-11-15T10:53:38;14.70;99.90
27164;DHT22;14685;50.618;7.024;2022-11-15T10:56:11;14.70;99.90
27164;DHT22;14685;50.618;7.024;2022-11-15T10:58:49;14.70;99.90
27164;DHT22;14685;50.618;7.024;2022-11-15T11:01:17;14.70;99.90
27164;DHT22;14685;50.618;7.024;2022-11-15T11:04:01;14.70;99.90
27164;DHT22;14685;50.618;7.024;2022-11-15T11:06:29;14.60;99.90
27164;DHT22;14685;50.618;7.024;2022-11-15T11:09:02;14.60;99.90
27164;DHT22;14685;50.618;7.024;2022-11-15T11:14:25;14.80;99.90
27164;DHT22;14685;50.618;7.024;2022-11-15T11:25:40;15.20;99.90
27164;DHT22;14685;50.618;7.024;2022-11-15T11:28:21;15.30;99.90
27164;DHT22;14685;50.618;7.024;2022-11-15T11:31:05;15.40;99.90
27164;DHT22;14685;50.618;7.024;2022-11-15T11:36:21;15.30;99.90
27164;DHT22;14685;50.618;7.024;2022-11-15T11:45:14;15.30;99.90
27164;DHT22;14685;50.618;7.024;2022-11-15T11:48:12;15.30;99.90
27164;DHT22;14685;50.618;7.024;2022-11-15T11:50:42;15.30;99.90
27164;DHT22;14685;50.618;7.024;2022-11-15T11:53:14;15.30;99.90
27164;DHT22;14685;50.618;7.024;2022-11-15T11:55:50;15.30;99.90
27164;DHT22;14685;50.618;7.024;2022-11-15T11:58:23;15.30;99.90
27164;DHT22;14685;50.618;7.024;2022-11-15T12:01:05;15.30;99.90
27164;DHT22;14685;50.618;7.024;2022-11-15T12:06:32;15.30;99.90
27164;DHT22;14685;50.618;7.024;2022-11-15T12:12:47;15.30;99.90
27164;DHT22;14685;50.618;7.024;2022-11-15T12:15:19;15.40;99.90
27164;DHT22;14685;50.618;7.024;2022-11-15T12:17:48;15.40;99.90
27164;DHT22;14685;50.618;7.024;2022-11-15T12:20:19;15.40;99.90
27164;DHT22;14685;50.618;7.024;2022-11-15T12:23:01;15.50;99.90
27164;DHT22;14685;50.618;7.024;2022-11-15T12:25:50;15.40;99.90
27164;DHT22;14685;50.618;7.024;2022-11-15T12:28:42;15.40;99.90
27164;DHT22;14685;50.618;7.024;2022-11-15T12:36:50;15.40;99.90
27164;DHT22;14685;50.618;7.024;2022-11-15T12:39:19;15.40;99.90
27164;DHT22;14685;50.618;7.024;2022-11-15T12:52:05;15.50;99.90
27164;DHT22;14685;50.618;7.024;2022-11-15T12:59:59;15.60;99.90
27164;DHT22;14685;50.618;7.024;2022-11-15T13:02:40;15.60;99.90
27164;DHT22;14685;50.618;7.024;2022-11-15T13:13:07;15.50;99.90
27164;DHT22;14685;50.618;7.024;2022-11-15T13:15:38;15.50;99.90
27164;DHT22;14685;50.618;7.024;2022-11-15T13:18:39;15.50;99.90
27164;DHT22;14685;50.618;7.024;2022-11-15T13:21:23;15.50;99.90
27164;DHT22;14685;50.618;7.024;2022-11-15T13:24:12;15.50;99.90
27164;DHT22;14685;50.618;7.024;2022-11-15T13:26:40;15.50;99.90
27164;DHT22;14685;50.618;7.024;2022-11-15T13:29:18;15.50;99.90
27164;DHT22;14685;50.618;7.024;2022-11-15T13:31:46;15.50;99.90
27164;DHT22;14685;50.618;7.024;2022-11-15T13:34:27;15.50;99.90
27164;DHT22;14685;50.618;7.024;2022-11-15T13:39:51;15.50;99.90
27164;DHT22;14685;50.618;7.024;2022-11-15T13:42:19;15.60;99.90
27164;DHT22;14685;50.618;7.024;2022-11-15T13:45:00;15.50;99.90
27164;DHT22;14685;50.618;7.024;2022-11-15T13:47:29;15.50;99.90
27164;DHT22;14685;50.618;7.024;2022-11-15T13:49:59;15.50;99.90
27164;DHT22;14685;50.618;7.024;2022-11-15T13:52:34;15.60;99.90
27164;DHT22;14685;50.618;7.024;2022-11-15T13:55:23;15.60;99.90
27164;DHT22;14685;50.618;7.024;2022-11-15T13:57:55;15.60;99.90
27164;DHT22;14685;50.618;7.024;2022-11-15T14:00:35;15.60;99.90
27164;DHT22;14685;50.618;7.024;2022-11-15T14:03:20;15.60;99.90
27164;DHT22;14685;50.618;7.024;2022-11-15T14:06:09;15.60;99.90
27164;DHT22;14685;50.618;7.024;2022-11-15T14:08:39;15.60;99.90
27164;DHT22;14685;50.618;7.024;2022-11-15T14:11:16;15.60;99.90
27164;DHT22;14685;50.618;7.024;2022-11-15T14:16:45;15.60;99.90
27164;DHT22;14685;50.618;7.024;2022-11-15T14:19:33;15.60;99.90
27164;DHT22;14685;50.618;7.024;2022-11-15T14:22:18;15.60;99.90
27164;DHT22;14685;50.618;7.024;2022-11-15T14:25:13;15.70;99.90
27164;DHT22;14685;50.618;7.024;2022-11-15T14:28:11;15.60;99.90
27164;DHT22;14685;50.618;7.024;2022-11-15T14:30:31;15.60;99.90
27164;DHT22;14685;50.618;7.024;2022-11-15T14:32:58;15.60;99.90
27164;DHT22;14685;50.618;7.024;2022-11-15T14:35:25;15.60;99.90
27164;DHT22;14685;50.618;7.024;2022-11-15T14:37:53;15.60;99.90
27164;DHT22;14685;50.618;7.024;2022-11-15T14:40:21;15.60;99.90
27164;DHT22;14685;50.618;7.024;2022-11-15T14:42:50;15.60;99.90
27164;DHT22;14685;50.618;7.024;2022-11-15T14:45:20;15.60;99.90
27164;DHT22;14685;50.618;7.024;2022-11-15T14:47:47;15.60;99.90
27164;DHT22;14685;50.618;7.024;2022-11-15T14:50:17;15.60;99.90
27164;DHT22;14685;50.618;7.024;2022-11-15T14:52:46;15.60;99.90
27164;DHT22;14685;50.618;7.024;2022-11-15T14:55:29;15.70;99.90
27164;DHT22;14685;50.618;7.024;2022-11-15T14:57:59;15.70;99.90
27164;DHT22;14685;50.618;7.024;2022-11-15T15:00:32;15.70;99.90
27164;DHT22;14685;50.618;7.024;2022-11-15T15:03:05;15.70;99.90
27164;DHT22;14685;50.618;7.024;2022-11-15T15:05:41;15.60;99.90
27164;DHT22;14685;50.618;7.024;2022-11-15T15:08:08;15.60;99.90
27164;DHT22;14685;50.618;7.024;2022-11-15T15:10:41;15.60;99.90
27164;DHT22;14685;50.618;7.024;2022-11-15T15:15:44;15.50;99.90
27164;DHT22;14685;50.618;7.024;2022-11-15T15:18:11;15.50;99.90
27164;DHT22;14685;50.618;7.024;2022-11-15T15:20:39;15.50;99.90
27164;DHT22;14685;50.618;7.024;2022-11-15T15:23:25;15.50;99.90
27164;DHT22;14685;50.618;7.024;2022-11-15T15:25:56;15.50;99.90
27164;DHT22;14685;50.618;7.024;2022-11-15T15:28:23;15.50;99.90
27164;DHT22;14685;50.618;7.024;2022-11-15T15:30:55;15.40;99.90
27164;DHT22;14685;50.618;7.024;2022-11-15T15:33:22;15.40;99.90
27164;DHT22;14685;50.618;7.024;2022-11-15T15:35:49;15.40;99.90
27164;DHT22;14685;50.618;7.024;2022-11-15T15:38:15;15.40;99.90
27164;DHT22;14685;50.618;7.024;2022-11-15T15:40:43;15.40;99.90
27164;DHT22;14685;50.618;7.024;2022-11-15T15:43:10;15.30;99.90
27164;DHT22;14685;50.618;7.024;2022-11-15T15:45:40;15.30;99.90
27164;DHT22;14685;50.618;7.024;2022-11-15T15:48:12;15.20;99.90
27164;DHT22;14685;50.618;7.024;2022-11-15T15:50:40;15.20;99.90
27164;DHT22;14685;50.618;7.024;2022-11-15T15:53:06;15.20;99.90
27164;DHT22;14685;50.618;7.024;2022-11-15T15:55:34;15.10;99.90
27164;DHT22;14685;50.618;7.024;2022-11-15T15:58:01;15.10;99.90
27164;DHT22;14685;50.618;7.024;2022-11-15T16:00:28;15.10;99.90
27164;DHT22;14685;50.618;7.024;2022-11-15T16:02:56;15.00;99.90
27164;DHT22;14685;50.618;7.024;2022-11-15T16:05:23;15.00;99.90
27164;DHT22;14685;50.618;7.024;2022-11-15T16:07:50;15.10;99.90
27164;DHT22;14685;50.618;7.024;2022-11-15T16:10:24;15.00;99.90
27164;DHT22;14685;50.618;7.024;2022-11-15T16:12:52;15.00;99.90
27164;DHT22;14685;50.618;7.024;2022-11-15T16:15:20;15.00;99.90
27164;DHT22;14685;50.618;7.024;2022-11-15T16:17:50;15.00;99.90
27164;DHT22;14685;50.618;7.024;2022-11-15T16:23:01;15.00;99.90
27164;DHT22;14685;50.618;7.024;2022-11-15T16:25:40;14.90;99.90
27164;DHT22;14685;50.618;7.024;2022-11-15T16:28:17;14.90;99.90
27164;DHT22;14685;50.618;7.024;2022-11-15T16:30:46;14.90;99.90
27164;DHT22;14685;50.618;7.024;2022-11-15T16:33:22;14.90;99.90
27164;DHT22;14685;50.618;7.024;2022-11-15T16:35:49;14.90;99.90
27164;DHT22;14685;50.618;7.024;2022-11-15T16:38:17;14.90;99.90
27164;DHT22;14685;50.618;7.024;2022-11-15T16:40:44;14.90;99.90
27164;DHT22;14685;50.618;7.024;2022-11-15T16:43:11;14.90;99.90
27164;DHT22;14685;50.618;7.024;2022-11-15T16:45:38;14.90;99.90
27164;DHT22;14685;50.618;7.024;2022-11-15T16:48:05;14.80;99.90
27164;DHT22;14685;50.618;7.024;2022-11-15T16:50:34;14.90;99.90
27164;DHT22;14685;50.618;7.024;2022-11-15T16:53:07;14.80;99.90
27164;DHT22;14685;50.618;7.024;2022-11-15T16:55:34;14.80;99.90
27164;DHT22;14685;50.618;7.024;2022-11-15T16:58:05;14.80;99.90
27164;DHT22;14685;50.618;7.024;2022-11-15T17:00:31;14.80;99.90
27164;DHT22;14685;50.618;7.024;2022-11-15T17:02:58;14.80;99.90
27164;DHT22;14685;50.618;7.024;2022-11-15T17:05:25;14.80;99.90
27164;DHT22;14685;50.618;7.024;2022-11-15T17:07:55;14.80;99.90
27164;DHT22;14685;50.618;7.024;2022-11-15T17:10:23;14.80;99.90
27164;DHT22;14685;50.618;7.024;2022-11-15T17:12:54;14.80;99.90
27164;DHT22;14685;50.618;7.024;2022-11-15T17:15:21;14.80;99.90
27164;DHT22;14685;50.618;7.024;2022-11-15T17:17:53;14.80;99.90
27164;DHT22;14685;50.618;7.024;2022-11-15T17:20:22;14.80;99.90
27164;DHT22;14685;50.618;7.024;2022-11-15T17:22:51;14.80;99.90
27164;DHT22;14685;50.618;7.024;2022-11-15T17:25:18;14.80;99.90
27164;DHT22;14685;50.618;7.024;2022-11-15T17:27:47;14.80;99.90
27164;DHT22;14685;50.618;7.024;2022-11-15T17:30:15;14.80;99.90
27164;DHT22;14685;50.618;7.024;2022-11-15T17:32:42;14.80;99.90
27164;DHT22;14685;50.618;7.024;2022-11-15T17:35:10;14.80;99.90
27164;DHT22;14685;50.618;7.024;2022-11-15T17:37:41;14.80;99.90
27164;DHT22;14685;50.618;7.024;2022-11-15T17:40:09;14.80;99.90
27164;DHT22;14685;50.618;7.024;2022-11-15T17:42:36;14.80;99.90
27164;DHT22;14685;50.618;7.024;2022-11-15T17:45:06;14.80;99.90
27164;DHT22;14685;50.618;7.024;2022-11-15T17:47:36;14.80;99.90
27164;DHT22;14685;50.618;7.024;2022-11-15T17:50:03;14.80;99.90
27164;DHT22;14685;50.618;7.024;2022-11-15T17:52:30;14.80;99.90